sensor_id;sensor_type;location;lat;lon;timestamp;temperature;humidity
64817;DHT22;53289;45.602;11.904;2022-07-10T00:00:12;19.00;64.10
64817;DHT22;53289;45.602;11.904;2022-07-10T00:02:40;19.00;64.10
64817;DHT22;53289;45.602;11.904;2022-07-10T00:05:08;18.90;64.30
64817;DHT22;53289;45.602;11.904;2022-07-10T00:07:35;18.90;64.10
64817;DHT22;53289;45.602;11.904;2022-07-10T00:10:02;18.90;64.20
64817;DHT22;53289;45.602;11.904;2022-07-10T00:12:28;18.90;64.60
64817;DHT22;53289;45.602;11.904;2022-07-10T00:14:54;18.90;64.50
64817;DHT22;53289;45.602;11.904;2022-07-10T00:17:20;18.80;64.20
64817;DHT22;53289;45.602;11.904;2022-07-10T00:19:46;18.80;64.20
64817;DHT22;53289;45.602;11.904;2022-07-10T00:22:12;18.80;64.30
64817;DHT22;53289;45.602;11.904;2022-07-10T00:24:38;18.80;64.70
64817;DHT22;53289;45.602;11.904;2022-07-10T00:27:04;18.80;64.40
64817;DHT22;53289;45.602;11.904;2022-07-10T00:29:30;18.80;64.30
64817;DHT22;53289;45.602;11.904;2022-07-10T00:31:56;18.80;64.30
64817;DHT22;53289;45.602;11.904;2022-07-10T00:34:22;18.80;64.10
64817;DHT22;53289;45.602;11.904;2022-07-10T00:36:48;18.80;63.80
64817;DHT22;53289;45.602;11.904;2022-07-10T00:39:14;18.80;63.80
64817;DHT22;53289;45.602;11.904;2022-07-10T00:41:39;18.80;63.80
64817;DHT22;53289;45.602;11.904;2022-07-10T00:44:05;18.80;63.90
64817;DHT22;53289;45.602;11.904;2022-07-10T00:46:32;18.80;63.80
64817;DHT22;53289;45.602;11.904;2022-07-10T00:48:58;18.80;63.70
64817;DHT22;53289;45.602;11.904;2022-07-10T00:51:25;18.80;64.00
64817;DHT22;53289;45.602;11.904;2022-07-10T00:53:53;18.80;64.10
64817;DHT22;53289;45.602;11.904;2022-07-10T00:56:22;18.70;64.60
64817;DHT22;53289;45.602;11.904;2022-07-10T00:58:48;18.70;64.50
64817;DHT22;53289;45.602;11.904;2022-07-10T01:01:15;18.70;64.50
64817;DHT22;53289;45.602;11.904;2022-07-10T01:03:43;18.60;64.20
64817;DHT22;53289;45.602;11.904;2022-07-10T01:06:13;18.60;64.10
64817;DHT22;53289;45.602;11.904;2022-07-10T01:08:40;18.60;64.20
64817;DHT22;53289;45.602;11.904;2022-07-10T01:11:06;18.60;64.10
64817;DHT22;53289;45.602;11.904;2022-07-10T01:13:32;18.50;64.10
64817;DHT22;53289;45.602;11.904;2022-07-10T01:15:58;18.50;64.40
64817;DHT22;53289;45.602;11.904;2022-07-10T01:18:25;18.50;64.50
64817;DHT22;53289;45.602;11.904;2022-07-10T01:20:52;18.40;64.50
64817;DHT22;53289;45.602;11.904;2022-07-10T01:23:19;18.40;64.40
64817;DHT22;53289;45.602;11.904;2022-07-10T01:25:45;18.40;64.50
64817;DHT22;53289;45.602;11.904;2022-07-10T01:28:12;18.40;64.50
64817;DHT22;53289;45.602;11.904;2022-07-10T01:30:38;18.40;64.30
64817;DHT22;53289;45.602;11.904;2022-07-10T01:33:03;18.40;64.10
64817;DHT22;53289;45.602;11.904;2022-07-10T01:35:30;18.50;64.00
64817;DHT22;53289;45.602;11.904;2022-07-10T01:37:56;18.50;63.70
64817;DHT22;53289;45.602;11.904;2022-07-10T01:40:22;18.50;63.40
64817;DHT22;53289;45.602;11.904;2022-07-10T01:42:47;18.60;63.30
64817;DHT22;53289;45.602;11.904;2022-07-10T01:45:16;18.60;63.30
64817;DHT22;53289;45.602;11.904;2022-07-10T01:47:44;18.60;63.10
64817;DHT22;53289;45.602;11.904;2022-07-10T01:50:10;18.60;63.00
64817;DHT22;53289;45.602;11.904;2022-07-10T01:52:36;18.60;62.90
64817;DHT22;53289;45.602;11.904;2022-07-10T01:55:03;18.70;62.70
64817;DHT22;53289;45.602;11.904;2022-07-10T01:57:29;18.70;62.70
64817;DHT22;53289;45.602;11.904;2022-07-10T01:59:56;18.70;62.50
64817;DHT22;53289;45.602;11.904;2022-07-10T02:02:22;18.80;62.40
64817;DHT22;53289;45.602;11.904;2022-07-10T02:04:48;18.80;62.50
64817;DHT22;53289;45.602;11.904;2022-07-10T02:07:16;18.70;62.50
64817;DHT22;53289;45.602;11.904;2022-07-10T02:09:43;18.60;62.40
64817;DHT22;53289;45.602;11.904;2022-07-10T02:12:11;18.60;62.60
64817;DHT22;53289;45.602;11.904;2022-07-10T02:14:38;18.50;63.10
64817;DHT22;53289;45.602;11.904;2022-07-10T02:17:05;18.50;63.10
64817;DHT22;53289;45.602;11.904;2022-07-10T02:19:31;18.40;63.10
64817;DHT22;53289;45.602;11.904;2022-07-10T02:21:58;18.40;63.30
64817;DHT22;53289;45.602;11.904;2022-07-10T02:24:24;18.30;63.20
64817;DHT22;53289;45.602;11.904;2022-07-10T02:26:50;18.30;63.20
64817;DHT22;53289;45.602;11.904;2022-07-10T02:29:16;18.20;63.40
64817;DHT22;53289;45.602;11.904;2022-07-10T02:31:43;18.20;63.90
64817;DHT22;53289;45.602;11.904;2022-07-10T02:34:13;18.10;64.10
64817;DHT22;53289;45.602;11.904;2022-07-10T02:36:40;18.00;64.20
64817;DHT22;53289;45.602;11.904;2022-07-10T02:39:07;18.00;64.60
64817;DHT22;53289;45.602;11.904;2022-07-10T02:41:34;18.00;64.90
64817;DHT22;53289;45.602;11.904;2022-07-10T02:44:02;17.90;65.20
64817;DHT22;53289;45.602;11.904;2022-07-10T02:46:28;17.90;65.60
64817;DHT22;53289;45.602;11.904;2022-07-10T02:48:54;17.90;66.00
64817;DHT22;53289;45.602;11.904;2022-07-10T02:51:20;17.80;66.10
64817;DHT22;53289;45.602;11.904;2022-07-10T02:53:46;17.80;65.80
64817;DHT22;53289;45.602;11.904;2022-07-10T02:56:12;17.80;66.00
64817;DHT22;53289;45.602;11.904;2022-07-10T02:58:38;17.70;66.20
64817;DHT22;53289;45.602;11.904;2022-07-10T03:01:05;17.70;66.30
64817;DHT22;53289;45.602;11.904;2022-07-10T03:03:31;17.60;66.50
64817;DHT22;53289;45.602;11.904;2022-07-10T03:05:59;17.60;66.50
64817;DHT22;53289;45.602;11.904;2022-07-10T03:08:25;17.50;66.70
64817;DHT22;53289;45.602;11.904;2022-07-10T03:10:51;17.50;66.60
64817;DHT22;53289;45.602;11.904;2022-07-10T03:13:17;17.40;66.90
64817;DHT22;53289;45.602;11.904;2022-07-10T03:15:43;17.40;66.80
64817;DHT22;53289;45.602;11.904;2022-07-10T03:18:09;17.40;66.90
64817;DHT22;53289;45.602;11.904;2022-07-10T03:20:35;17.40;67.00
64817;DHT22;53289;45.602;11.904;2022-07-10T03:23:01;17.40;67.60
64817;DHT22;53289;45.602;11.904;2022-07-10T03:25:27;17.30;67.60
64817;DHT22;53289;45.602;11.904;2022-07-10T03:27:53;17.20;67.40
64817;DHT22;53289;45.602;11.904;2022-07-10T03:30:19;17.20;67.40
64817;DHT22;53289;45.602;11.904;2022-07-10T03:32:46;17.20;67.80
64817;DHT22;53289;45.602;11.904;2022-07-10T03:35:12;17.20;67.40
64817;DHT22;53289;45.602;11.904;2022-07-10T03:37:38;17.10;67.50
64817;DHT22;53289;45.602;11.904;2022-07-10T03:40:04;17.10;67.90
64817;DHT22;53289;45.602;11.904;2022-07-10T03:42:30;17.10;68.10
64817;DHT22;53289;45.602;11.904;2022-07-10T03:44:56;17.10;68.10
64817;DHT22;53289;45.602;11.904;2022-07-10T03:47:22;17.00;67.80
64817;DHT22;53289;45.602;11.904;2022-07-10T03:49:48;17.10;67.80
64817;DHT22;53289;45.602;11.904;2022-07-10T03:52:15;17.10;68.00
64817;DHT22;53289;45.602;11.904;2022-07-10T03:54:41;17.10;68.20
64817;DHT22;53289;45.602;11.904;2022-07-10T03:57:07;17.10;68.10
64817;DHT22;53289;45.602;11.904;2022-07-10T03:59:52;17.00;68.20
64817;DHT22;53289;45.602;11.904;2022-07-10T04:02:18;17.00;68.40
64817;DHT22;53289;45.602;11.904;2022-07-10T04:04:43;17.00;68.60
64817;DHT22;53289;45.602;11.904;2022-07-10T04:07:10;16.90;68.80
64817;DHT22;53289;45.602;11.904;2022-07-10T04:09:38;16.90;69.30
64817;DHT22;53289;45.602;11.904;2022-07-10T04:12:05;16.90;69.70
64817;DHT22;53289;45.602;11.904;2022-07-10T04:14:31;16.90;70.60
64817;DHT22;53289;45.602;11.904;2022-07-10T04:16:57;17.00;71.10
64817;DHT22;53289;45.602;11.904;2022-07-10T04:19:23;17.00;72.30
64817;DHT22;53289;45.602;11.904;2022-07-10T04:21:49;17.10;71.80
64817;DHT22;53289;45.602;11.904;2022-07-10T04:24:15;17.20;71.40
64817;DHT22;53289;45.602;11.904;2022-07-10T04:26:42;17.20;71.00
64817;DHT22;53289;45.602;11.904;2022-07-10T04:29:08;17.30;70.30
64817;DHT22;53289;45.602;11.904;2022-07-10T04:31:34;17.40;69.90
64817;DHT22;53289;45.602;11.904;2022-07-10T04:34:00;17.40;70.00
64817;DHT22;53289;45.602;11.904;2022-07-10T04:36:26;17.50;69.50
64817;DHT22;53289;45.602;11.904;2022-07-10T04:38:51;17.60;69.20
64817;DHT22;53289;45.602;11.904;2022-07-10T04:41:17;17.60;69.20
64817;DHT22;53289;45.602;11.904;2022-07-10T04:43:43;17.80;69.70
64817;DHT22;53289;45.602;11.904;2022-07-10T04:46:10;17.90;69.50
64817;DHT22;53289;45.602;11.904;2022-07-10T04:48:35;17.90;69.40
64817;DHT22;53289;45.602;11.904;2022-07-10T04:51:02;18.10;69.20
64817;DHT22;53289;45.602;11.904;2022-07-10T04:53:28;18.20;69.30
64817;DHT22;53289;45.602;11.904;2022-07-10T04:55:54;18.30;69.70
64817;DHT22;53289;45.602;11.904;2022-07-10T04:58:20;18.40;69.10
64817;DHT22;53289;45.602;11.904;2022-07-10T05:00:46;18.50;68.50
64817;DHT22;53289;45.602;11.904;2022-07-10T05:03:12;18.60;68.40
64817;DHT22;53289;45.602;11.904;2022-07-10T05:05:41;18.80;68.30
64817;DHT22;53289;45.602;11.904;2022-07-10T05:08:07;18.90;67.50
64817;DHT22;53289;45.602;11.904;2022-07-10T05:10:33;19.10;67.10
64817;DHT22;53289;45.602;11.904;2022-07-10T05:12:59;19.20;66.90
64817;DHT22;53289;45.602;11.904;2022-07-10T05:15:25;19.40;67.00
64817;DHT22;53289;45.602;11.904;2022-07-10T05:17:51;19.50;67.30
64817;DHT22;53289;45.602;11.904;2022-07-10T05:20:17;19.70;66.60
64817;DHT22;53289;45.602;11.904;2022-07-10T05:22:43;19.80;66.50
64817;DHT22;53289;45.602;11.904;2022-07-10T05:25:09;19.90;66.10
64817;DHT22;53289;45.602;11.904;2022-07-10T05:27:35;20.00;66.10
64817;DHT22;53289;45.602;11.904;2022-07-10T05:30:01;20.10;66.20
64817;DHT22;53289;45.602;11.904;2022-07-10T05:32:27;20.20;66.30
64817;DHT22;53289;45.602;11.904;2022-07-10T05:34:53;20.20;66.30
64817;DHT22;53289;45.602;11.904;2022-07-10T05:37:18;20.40;66.20
64817;DHT22;53289;45.602;11.904;2022-07-10T05:39:45;20.40;65.80
64817;DHT22;53289;45.602;11.904;2022-07-10T05:42:11;20.50;65.60
64817;DHT22;53289;45.602;11.904;2022-07-10T05:44:37;20.60;65.60
64817;DHT22;53289;45.602;11.904;2022-07-10T05:47:03;20.70;65.40
64817;DHT22;53289;45.602;11.904;2022-07-10T05:49:29;20.90;65.90
64817;DHT22;53289;45.602;11.904;2022-07-10T05:51:55;21.00;65.10
64817;DHT22;53289;45.602;11.904;2022-07-10T05:54:21;21.10;65.00
64817;DHT22;53289;45.602;11.904;2022-07-10T05:56:47;21.30;64.50
64817;DHT22;53289;45.602;11.904;2022-07-10T05:59:13;21.40;64.10
64817;DHT22;53289;45.602;11.904;2022-07-10T06:01:39;21.50;63.70
64817;DHT22;53289;45.602;11.904;2022-07-10T06:04:04;21.60;63.70
64817;DHT22;53289;45.602;11.904;2022-07-10T06:06:30;21.70;63.00
64817;DHT22;53289;45.602;11.904;2022-07-10T06:08:56;21.80;62.60
64817;DHT22;53289;45.602;11.904;2022-07-10T06:11:24;21.90;62.00
64817;DHT22;53289;45.602;11.904;2022-07-10T06:13:50;22.00;61.70
64817;DHT22;53289;45.602;11.904;2022-07-10T06:16:16;22.10;61.40
64817;DHT22;53289;45.602;11.904;2022-07-10T06:18:42;22.20;61.10
64817;DHT22;53289;45.602;11.904;2022-07-10T06:21:08;22.40;60.80
64817;DHT22;53289;45.602;11.904;2022-07-10T06:23:34;22.50;60.70
64817;DHT22;53289;45.602;11.904;2022-07-10T06:26:00;22.60;60.70
64817;DHT22;53289;45.602;11.904;2022-07-10T06:28:26;22.70;60.20
64817;DHT22;53289;45.602;11.904;2022-07-10T06:30:52;22.80;59.70
64817;DHT22;53289;45.602;11.904;2022-07-10T06:33:18;22.90;59.10
64817;DHT22;53289;45.602;11.904;2022-07-10T06:35:44;23.00;58.80
64817;DHT22;53289;45.602;11.904;2022-07-10T06:38:10;23.10;57.80
64817;DHT22;53289;45.602;11.904;2022-07-10T06:40:37;23.30;56.80
64817;DHT22;53289;45.602;11.904;2022-07-10T06:43:03;23.40;56.40
64817;DHT22;53289;45.602;11.904;2022-07-10T06:45:30;23.50;56.20
64817;DHT22;53289;45.602;11.904;2022-07-10T06:47:56;23.70;55.90
64817;DHT22;53289;45.602;11.904;2022-07-10T06:50:33;23.80;55.60
64817;DHT22;53289;45.602;11.904;2022-07-10T06:53:01;23.90;55.30
64817;DHT22;53289;45.602;11.904;2022-07-10T06:55:28;24.00;54.90
64817;DHT22;53289;45.602;11.904;2022-07-10T06:57:54;24.10;54.30
64817;DHT22;53289;45.602;11.904;2022-07-10T07:00:21;24.30;53.30
64817;DHT22;53289;45.602;11.904;2022-07-10T07:02:47;24.30;53.20
64817;DHT22;53289;45.602;11.904;2022-07-10T07:05:14;24.40;53.00
64817;DHT22;53289;45.602;11.904;2022-07-10T07:07:40;24.50;52.70
64817;DHT22;53289;45.602;11.904;2022-07-10T07:10:09;24.70;52.60
64817;DHT22;53289;45.602;11.904;2022-07-10T07:12:36;24.80;51.80
64817;DHT22;53289;45.602;11.904;2022-07-10T07:15:03;24.90;49.00
64817;DHT22;53289;45.602;11.904;2022-07-10T07:17:29;25.10;47.80
64817;DHT22;53289;45.602;11.904;2022-07-10T07:20:12;25.30;47.70
64817;DHT22;53289;45.602;11.904;2022-07-10T07:23:08;25.40;47.50
64817;DHT22;53289;45.602;11.904;2022-07-10T07:25:41;25.50;47.40
64817;DHT22;53289;45.602;11.904;2022-07-10T07:28:13;25.70;47.30
64817;DHT22;53289;45.602;11.904;2022-07-10T07:30:42;25.90;47.00
64817;DHT22;53289;45.602;11.904;2022-07-10T07:33:08;25.90;45.90
64817;DHT22;53289;45.602;11.904;2022-07-10T07:35:34;26.00;45.60
64817;DHT22;53289;45.602;11.904;2022-07-10T07:38:02;26.20;45.40
64817;DHT22;53289;45.602;11.904;2022-07-10T07:40:28;26.40;43.60
64817;DHT22;53289;45.602;11.904;2022-07-10T07:42:55;26.50;43.60
64817;DHT22;53289;45.602;11.904;2022-07-10T07:45:22;26.70;43.40
64817;DHT22;53289;45.602;11.904;2022-07-10T07:47:51;26.90;42.20
64817;DHT22;53289;45.602;11.904;2022-07-10T07:50:20;27.10;42.60
64817;DHT22;53289;45.602;11.904;2022-07-10T07:52:47;27.30;42.50
64817;DHT22;53289;45.602;11.904;2022-07-10T07:55:15;27.40;41.70
64817;DHT22;53289;45.602;11.904;2022-07-10T07:57:43;27.60;41.50
64817;DHT22;53289;45.602;11.904;2022-07-10T08:00:10;27.60;40.20
64817;DHT22;53289;45.602;11.904;2022-07-10T08:02:37;27.60;39.30
64817;DHT22;53289;45.602;11.904;2022-07-10T08:05:04;27.70;39.70
64817;DHT22;53289;45.602;11.904;2022-07-10T08:07:38;27.80;40.10
64817;DHT22;53289;45.602;11.904;2022-07-10T08:10:06;28.00;40.00
64817;DHT22;53289;45.602;11.904;2022-07-10T08:12:33;28.20;39.90
64817;DHT22;53289;45.602;11.904;2022-07-10T08:14:59;28.40;39.00
64817;DHT22;53289;45.602;11.904;2022-07-10T08:17:26;28.60;38.90
64817;DHT22;53289;45.602;11.904;2022-07-10T08:19:53;28.70;38.50
64817;DHT22;53289;45.602;11.904;2022-07-10T08:22:19;28.80;38.90
64817;DHT22;53289;45.602;11.904;2022-07-10T08:24:45;28.90;38.20
64817;DHT22;53289;45.602;11.904;2022-07-10T08:27:11;29.00;38.60
64817;DHT22;53289;45.602;11.904;2022-07-10T08:29:38;29.20;38.60
64817;DHT22;53289;45.602;11.904;2022-07-10T08:32:04;29.30;38.10
64817;DHT22;53289;45.602;11.904;2022-07-10T08:34:31;29.40;38.00
64817;DHT22;53289;45.602;11.904;2022-07-10T08:36:59;29.50;38.00
64817;DHT22;53289;45.602;11.904;2022-07-10T08:39:25;29.60;37.30
64817;DHT22;53289;45.602;11.904;2022-07-10T08:41:51;29.80;36.00
64817;DHT22;53289;45.602;11.904;2022-07-10T08:44:18;30.00;36.30
64817;DHT22;53289;45.602;11.904;2022-07-10T08:46:45;30.10;35.60
64817;DHT22;53289;45.602;11.904;2022-07-10T08:49:12;30.20;35.20
64817;DHT22;53289;45.602;11.904;2022-07-10T08:51:58;30.30;35.50
64817;DHT22;53289;45.602;11.904;2022-07-10T08:54:27;30.40;35.90
64817;DHT22;53289;45.602;11.904;2022-07-10T08:56:56;30.50;34.40
64817;DHT22;53289;45.602;11.904;2022-07-10T08:59:24;30.70;33.50
64817;DHT22;53289;45.602;11.904;2022-07-10T09:01:51;30.90;33.00
64817;DHT22;53289;45.602;11.904;2022-07-10T09:04:20;31.20;31.50
64817;DHT22;53289;45.602;11.904;2022-07-10T09:06:46;31.40;31.30
64817;DHT22;53289;45.602;11.904;2022-07-10T09:09:12;31.70;31.00
64817;DHT22;53289;45.602;11.904;2022-07-10T09:11:41;32.00;30.80
64817;DHT22;53289;45.602;11.904;2022-07-10T09:14:15;32.20;30.00
64817;DHT22;53289;45.602;11.904;2022-07-10T09:16:45;32.30;30.70
64817;DHT22;53289;45.602;11.904;2022-07-10T09:19:22;32.50;29.70
64817;DHT22;53289;45.602;11.904;2022-07-10T09:22:08;32.80;29.70
64817;DHT22;53289;45.602;11.904;2022-07-10T09:24:41;33.00;29.40
64817;DHT22;53289;45.602;11.904;2022-07-10T09:27:08;33.30;29.10
64817;DHT22;53289;45.602;11.904;2022-07-10T09:29:53;33.40;28.60
64817;DHT22;53289;45.602;11.904;2022-07-10T09:32:24;33.50;28.80
64817;DHT22;53289;45.602;11.904;2022-07-10T09:34:51;33.70;29.20
64817;DHT22;53289;45.602;11.904;2022-07-10T09:37:42;33.90;28.60
64817;DHT22;53289;45.602;11.904;2022-07-10T09:40:09;33.90;28.50
64817;DHT22;53289;45.602;11.904;2022-07-10T09:42:37;33.90;28.40
64817;DHT22;53289;45.602;11.904;2022-07-10T09:47:40;33.90;27.80
64817;DHT22;53289;45.602;11.904;2022-07-10T09:50:32;33.80;27.40
64817;DHT22;53289;45.602;11.904;2022-07-10T09:53:05;33.60;27.30
64817;DHT22;53289;45.602;11.904;2022-07-10T09:55:34;33.50;28.10
64817;DHT22;53289;45.602;11.904;2022-07-10T09:58:07;33.70;27.80
64817;DHT22;53289;45.602;11.904;2022-07-10T10:00:38;34.00;27.80
64817;DHT22;53289;45.602;11.904;2022-07-10T10:03:07;34.20;27.70
64817;DHT22;53289;45.602;11.904;2022-07-10T10:11:19;34.80;26.40
64817;DHT22;53289;45.602;11.904;2022-07-10T10:13:47;34.50;26.80
64817;DHT22;53289;45.602;11.904;2022-07-10T10:16:14;34.40;26.80
64817;DHT22;53289;45.602;11.904;2022-07-10T10:18:42;34.50;26.80
64817;DHT22;53289;45.602;11.904;2022-07-10T10:21:28;34.40;26.90
64817;DHT22;53289;45.602;11.904;2022-07-10T10:23:55;34.40;27.40
64817;DHT22;53289;45.602;11.904;2022-07-10T10:26:24;34.70;26.70
64817;DHT22;53289;45.602;11.904;2022-07-10T10:28:52;34.70;26.80
64817;DHT22;53289;45.602;11.904;2022-07-10T10:31:21;34.70;26.80
64817;DHT22;53289;45.602;11.904;2022-07-10T10:33:47;34.40;26.80
64817;DHT22;53289;45.602;11.904;2022-07-10T10:39:15;33.70;27.70
64817;DHT22;53289;45.602;11.904;2022-07-10T10:41:51;33.70;28.40
64817;DHT22;53289;45.602;11.904;2022-07-10T10:49:17;33.80;28.10
64817;DHT22;53289;45.602;11.904;2022-07-10T10:52:00;33.70;28.30
64817;DHT22;53289;45.602;11.904;2022-07-10T10:59:59;34.10;27.70
64817;DHT22;53289;45.602;11.904;2022-07-10T11:02:33;34.20;28.10
64817;DHT22;53289;45.602;11.904;2022-07-10T11:13:12;35.90;26.50
64817;DHT22;53289;45.602;11.904;2022-07-10T11:18:12;37.00;25.20
64817;DHT22;53289;45.602;11.904;2022-07-10T11:20:46;37.30;25.30
64817;DHT22;53289;45.602;11.904;2022-07-10T11:26:06;38.20;24.10
64817;DHT22;53289;45.602;11.904;2022-07-10T11:28:49;38.70;23.90
64817;DHT22;53289;45.602;11.904;2022-07-10T11:31:16;39.10;23.60
64817;DHT22;53289;45.602;11.904;2022-07-10T11:33:44;38.80;23.70
64817;DHT22;53289;45.602;11.904;2022-07-10T11:36:16;38.50;23.70
64817;DHT22;53289;45.602;11.904;2022-07-10T11:38:43;38.10;24.00
64817;DHT22;53289;45.602;11.904;2022-07-10T11:41:20;37.50;24.70
64817;DHT22;53289;45.602;11.904;2022-07-10T11:46:26;36.10;25.80
64817;DHT22;53289;45.602;11.904;2022-07-10T11:48:54;35.80;26.40
64817;DHT22;53289;45.602;11.904;2022-07-10T11:51:27;35.70;26.70
64817;DHT22;53289;45.602;11.904;2022-07-10T11:56:28;36.00;26.30
64817;DHT22;53289;45.602;11.904;2022-07-10T11:59:05;36.20;25.80
64817;DHT22;53289;45.602;11.904;2022-07-10T12:04:12;35.80;26.60
64817;DHT22;53289;45.602;11.904;2022-07-10T12:06:43;35.70;26.80
64817;DHT22;53289;45.602;11.904;2022-07-10T12:09:14;35.70;26.60
64817;DHT22;53289;45.602;11.904;2022-07-10T12:14:42;35.20;27.00
64817;DHT22;53289;45.602;11.904;2022-07-10T12:17:12;35.20;27.30
64817;DHT22;53289;45.602;11.904;2022-07-10T12:19:39;35.40;27.30
64817;DHT22;53289;45.602;11.904;2022-07-10T12:22:06;35.60;26.70
64817;DHT22;53289;45.602;11.904;2022-07-10T12:24:32;35.90;26.80
64817;DHT22;53289;45.602;11.904;2022-07-10T12:26:58;36.30;26.40
64817;DHT22;53289;45.602;11.904;2022-07-10T12:29:26;36.80;26.30
64817;DHT22;53289;45.602;11.904;2022-07-10T12:32:00;37.50;26.10
64817;DHT22;53289;45.602;11.904;2022-07-10T12:34:41;38.40;24.80
64817;DHT22;53289;45.602;11.904;2022-07-10T12:37:13;39.20;23.70
64817;DHT22;53289;45.602;11.904;2022-07-10T12:39:52;39.80;23.30
64817;DHT22;53289;45.602;11.904;2022-07-10T12:42:30;40.30;23.00
64817;DHT22;53289;45.602;11.904;2022-07-10T12:45:12;40.80;23.00
64817;DHT22;53289;45.602;11.904;2022-07-10T12:47:48;40.90;22.60
64817;DHT22;53289;45.602;11.904;2022-07-10T12:50:16;40.60;22.70
64817;DHT22;53289;45.602;11.904;2022-07-10T12:52:44;40.30;22.80
64817;DHT22;53289;45.602;11.904;2022-07-10T12:57:56;39.40;23.70
64817;DHT22;53289;45.602;11.904;2022-07-10T13:00:30;38.70;23.80
64817;DHT22;53289;45.602;11.904;2022-07-10T13:03:00;37.70;24.50
64817;DHT22;53289;45.602;11.904;2022-07-10T13:05:37;36.90;25.50
64817;DHT22;53289;45.602;11.904;2022-07-10T13:10:41;36.10;26.20
64817;DHT22;53289;45.602;11.904;2022-07-10T13:13:07;36.00;26.50
64817;DHT22;53289;45.602;11.904;2022-07-10T13:15:33;35.90;26.60
64817;DHT22;53289;45.602;11.904;2022-07-10T13:18:17;35.60;26.80
64817;DHT22;53289;45.602;11.904;2022-07-10T13:20:47;35.40;26.90
64817;DHT22;53289;45.602;11.904;2022-07-10T13:23:14;35.40;27.10
64817;DHT22;53289;45.602;11.904;2022-07-10T13:25:41;35.70;27.00
64817;DHT22;53289;45.602;11.904;2022-07-10T13:28:09;36.20;26.70
64817;DHT22;53289;45.602;11.904;2022-07-10T13:30:37;36.90;26.30
64817;DHT22;53289;45.602;11.904;2022-07-10T13:33:03;37.50;25.00
64817;DHT22;53289;45.602;11.904;2022-07-10T13:35:31;37.80;24.70
64817;DHT22;53289;45.602;11.904;2022-07-10T13:38:00;37.90;24.60
64817;DHT22;53289;45.602;11.904;2022-07-10T13:40:28;37.80;24.80
64817;DHT22;53289;45.602;11.904;2022-07-10T13:42:54;37.40;25.20
64817;DHT22;53289;45.602;11.904;2022-07-10T13:45:23;37.30;25.60
64817;DHT22;53289;45.602;11.904;2022-07-10T13:47:51;37.40;25.40
64817;DHT22;53289;45.602;11.904;2022-07-10T13:50:19;37.40;25.60
64817;DHT22;53289;45.602;11.904;2022-07-10T13:52:46;37.40;25.30
64817;DHT22;53289;45.602;11.904;2022-07-10T13:55:12;37.20;25.30
64817;DHT22;53289;45.602;11.904;2022-07-10T13:57:39;36.80;25.40
64817;DHT22;53289;45.602;11.904;2022-07-10T14:00:06;36.60;25.40
64817;DHT22;53289;45.602;11.904;2022-07-10T14:02:33;36.40;25.70
64817;DHT22;53289;45.602;11.904;2022-07-10T14:04:59;36.20;26.10
64817;DHT22;53289;45.602;11.904;2022-07-10T14:07:25;36.10;26.20
64817;DHT22;53289;45.602;11.904;2022-07-10T14:09:52;36.00;26.30
64817;DHT22;53289;45.602;11.904;2022-07-10T14:12:17;35.90;26.60
64817;DHT22;53289;45.602;11.904;2022-07-10T14:14:43;35.70;26.80
64817;DHT22;53289;45.602;11.904;2022-07-10T14:17:09;35.60;26.90
64817;DHT22;53289;45.602;11.904;2022-07-10T14:19:36;35.50;27.20
64817;DHT22;53289;45.602;11.904;2022-07-10T14:22:02;35.50;27.20
64817;DHT22;53289;45.602;11.904;2022-07-10T14:24:28;35.70;26.80
64817;DHT22;53289;45.602;11.904;2022-07-10T14:26:54;35.90;26.60
64817;DHT22;53289;45.602;11.904;2022-07-10T14:29:20;36.10;26.40
64817;DHT22;53289;45.602;11.904;2022-07-10T14:31:46;36.20;26.40
64817;DHT22;53289;45.602;11.904;2022-07-10T14:34:17;36.40;26.80
64817;DHT22;53289;45.602;11.904;2022-07-10T14:36:43;36.40;28.70
64817;DHT22;53289;45.602;11.904;2022-07-10T14:39:09;36.20;30.00
64817;DHT22;53289;45.602;11.904;2022-07-10T14:41:38;36.00;30.90
64817;DHT22;53289;45.602;11.904;2022-07-10T14:44:05;35.80;32.10
64817;DHT22;53289;45.602;11.904;2022-07-10T14:46:32;35.40;32.50
64817;DHT22;53289;45.602;11.904;2022-07-10T14:49:00;34.90;33.10
64817;DHT22;53289;45.602;11.904;2022-07-10T14:51:25;34.60;33.90
64817;DHT22;53289;45.602;11.904;2022-07-10T14:53:51;34.30;34.10
64817;DHT22;53289;45.602;11.904;2022-07-10T14:56:17;34.20;34.50
64817;DHT22;53289;45.602;11.904;2022-07-10T14:58:45;34.40;34.20
64817;DHT22;53289;45.602;11.904;2022-07-10T15:01:12;34.50;34.00
64817;DHT22;53289;45.602;11.904;2022-07-10T15:03:38;34.80;33.40
64817;DHT22;53289;45.602;11.904;2022-07-10T15:06:04;34.90;33.60
64817;DHT22;53289;45.602;11.904;2022-07-10T15:08:31;34.90;33.60
64817;DHT22;53289;45.602;11.904;2022-07-10T15:10:57;34.90;33.60
64817;DHT22;53289;45.602;11.904;2022-07-10T15:13:28;34.70;33.70
64817;DHT22;53289;45.602;11.904;2022-07-10T15:15:54;34.40;34.20
64817;DHT22;53289;45.602;11.904;2022-07-10T15:18:20;34.30;34.50
64817;DHT22;53289;45.602;11.904;2022-07-10T15:20:47;34.00;34.90
64817;DHT22;53289;45.602;11.904;2022-07-10T15:23:13;33.80;35.20
64817;DHT22;53289;45.602;11.904;2022-07-10T15:25:40;33.70;34.80
64817;DHT22;53289;45.602;11.904;2022-07-10T15:28:09;33.50;35.00
64817;DHT22;53289;45.602;11.904;2022-07-10T15:30:37;33.30;35.10
64817;DHT22;53289;45.602;11.904;2022-07-10T15:33:04;33.10;35.30
64817;DHT22;53289;45.602;11.904;2022-07-10T15:35:34;32.90;35.80
64817;DHT22;53289;45.602;11.904;2022-07-10T15:38:00;32.60;36.30
64817;DHT22;53289;45.602;11.904;2022-07-10T15:40:28;32.40;36.90
64817;DHT22;53289;45.602;11.904;2022-07-10T15:42:57;32.50;36.60
64817;DHT22;53289;45.602;11.904;2022-07-10T15:45:24;32.30;37.10
64817;DHT22;53289;45.602;11.904;2022-07-10T15:47:51;32.20;37.70
64817;DHT22;53289;45.602;11.904;2022-07-10T15:50:17;31.90;38.50
64817;DHT22;53289;45.602;11.904;2022-07-10T15:52:43;32.00;38.20
64817;DHT22;53289;45.602;11.904;2022-07-10T15:55:12;31.90;38.50
64817;DHT22;53289;45.602;11.904;2022-07-10T15:57:39;31.90;38.50
64817;DHT22;53289;45.602;11.904;2022-07-10T16:00:09;31.90;38.50
64817;DHT22;53289;45.602;11.904;2022-07-10T16:02:36;31.70;38.60
64817;DHT22;53289;45.602;11.904;2022-07-10T16:05:03;31.50;38.90
64817;DHT22;53289;45.602;11.904;2022-07-10T16:07:29;31.10;40.10
64817;DHT22;53289;45.602;11.904;2022-07-10T16:09:55;30.90;40.40